Time;durP1;ratioP1;P1;durP2;ratioP2;P2;SDS_P1;SDS_P2;PMS_P1;PMS_P2;Temp;Humidity;BMP_temperature;BMP_pressure;BME280_temperature;BME280_humidity;BME280_pressure;Samples;Min_cycle;Max_cycle;Signal;HPM_P1;HPM_P2
2023/03/16 00:08:02;;;;;;;0.85;0.43;;;;;;;19.92;31.28;101479.31;21082090;28;20395;-71
2023/03/16 00:18:03;;;;;;;0.60;0.50;;;;;;;20.11;31.46;101507.56;21081285;28;20093;-71
2023/03/16 00:28:04;;;;;;;0.45;0.43;;;;;;;20.14;31.01;101532.88;21080549;28;20415;-71
2023/03/16 00:38:06;;;;;;;0.40;0.40;;;;;;;20.15;31.32;101548.44;21079933;28;20040;-71
2023/03/16 00:48:07;;;;;;;0.70;0.45;;;;;;;20.26;31.12;101569.72;21078397;28;20074;-69
2023/03/16 00:58:08;;;;;;;0.50;0.50;;;;;;;20.22;31.00;101578.84;21078471;28;20129;-70
2023/03/16 01:08:13;;;;;;;1.85;0.52;;;;;;;20.35;31.22;101610.94;21078157;28;20036;-71
2023/03/16 01:18:14;;;;;;;0.55;0.40;;;;;;;20.39;31.30;101606.50;21077191;28;20489;-70
2023/03/16 01:28:15;;;;;;;0.30;0.30;;;;;;;20.39;31.08;101612.06;21076786;28;20060;-70
2023/03/16 01:38:23;;;;;;;1.40;0.38;;;;;;;20.44;31.38;101626.91;21075185;28;20032;-71
2023/03/16 01:48:26;;;;;;;0.68;0.55;;;;;;;20.45;31.31;101633.28;21074898;28;20048;-70
2023/03/16 01:58:30;;;;;;;0.32;0.30;;;;;;;20.43;31.08;101641.88;21075142;28;20047;-71
2023/03/16 02:08:32;;;;;;;1.92;0.55;;;;;;;20.31;30.72;101622.56;21090126;28;20032;-72
2023/03/16 02:18:37;;;;;;;0.60;0.60;;;;;;;20.43;31.08;101646.59;21090343;28;20483;-69
2023/03/16 02:29:04;;;;;;;0.40;0.40;;;;;;;20.29;31.19;101651.72;21089883;28;20047;-70
2023/03/16 02:39:05;;;;;;;1.05;0.30;;;;;;;20.34;30.82;101667.63;21089382;28;20051;-70
2023/03/16 02:49:11;;;;;;;0.60;0.50;;;;;;;20.29;31.22;101674.78;21087570;28;20078;-70
2023/03/16 02:59:13;;;;;;;1.08;0.60;;;;;;;20.19;30.87;101680.22;21088490;28;20051;-70
2023/03/16 03:09:15;;;;;;;0.40;0.40;;;;;;;20.22;30.83;101676.94;21046317;28;20371;-70
2023/03/16 03:19:16;;;;;;;0.45;0.40;;;;;;;19.94;31.08;101627.13;21010132;28;20040;-70
2023/03/16 03:29:18;;;;;;;1.90;0.50;;;;;;;20.26;31.04;101702.28;21084869;28;20040;-70
2023/03/16 03:39:19;;;;;;;0.55;0.55;;;;;;;20.24;30.65;101702.53;21083984;28;20089;-70
2023/03/16 03:49:21;;;;;;;0.60;0.55;;;;;;;20.27;30.65;101710.34;21083096;28;20121;-69
2023/03/16 03:59:22;;;;;;;0.38;0.30;;;;;;;20.26;30.68;101717.00;21044688;28;20044;-70
2023/03/16 04:09:23;;;;;;;0.43;0.40;;;;;;;20.22;30.69;101718.63;20998434;28;20037;-70
2023/03/16 04:19:25;;;;;;;0.70;0.43;;;;;;;20.22;31.29;101735.31;21060719;28;20028;-72
2023/03/16 04:29:27;;;;;;;2.92;0.50;;;;;;;20.02;31.27;101702.53;21076325;28;20048;-72
2023/03/16 04:39:28;;;;;;;0.93;0.40;;;;;;;20.19;31.30;101735.81;21072112;28;20101;-72
2023/03/16 04:49:32;;;;;;;1.33;0.50;;;;;;;20.01;31.50;101727.75;21075111;28;20060;-73
2023/03/16 04:59:33;;;;;;;3.22;1.33;;;;;;;20.19;30.92;101755.25;21072656;28;20372;-73
2023/03/16 05:09:41;;;;;;;3.08;0.60;;;;;;;19.78;31.11;101682.44;21075760;28;20044;-74
2023/03/16 05:19:45;;;;;;;1.13;0.60;;;;;;;20.21;30.85;101761.41;21075631;28;20036;-73
2023/03/16 05:29:49;;;;;;;0.45;0.40;;;;;;;20.20;30.96;101768.03;21073938;28;20044;-73
2023/03/16 05:39:51;;;;;;;1.30;0.40;;;;;;;20.17;30.82;101774.13;21068619;28;20040;-74
2023/03/16 05:49:52;;;;;;;1.65;0.43;;;;;;;20.17;30.86;101771.34;21072984;28;20075;-73
2023/03/16 05:59:53;;;;;;;3.53;0.50;;;;;;;20.13;30.76;101767.41;21073594;28;20073;-73
2023/03/16 06:09:55;;;;;;;0.75;0.40;;;;;;;20.13;30.48;101752.69;21072913;28;20040;-72
2023/03/16 06:19:56;;;;;;;0.40;0.40;;;;;;;20.13;30.63;101758.22;21070321;28;20058;-72
2023/03/16 06:29:58;;;;;;;0.80;0.60;;;;;;;20.10;30.73;101748.47;21070804;28;20044;-71
2023/03/16 06:39:59;;;;;;;2.08;0.60;;;;;;;20.10;30.41;101761.50;21069369;28;20104;-72
2023/03/16 06:50:00;;;;;;;0.63;0.50;;;;;;;19.48;30.40;101662.53;21079032;28;20071;-72
2023/03/16 07:00:06;;;;;;;0.32;0.32;;;;;;;20.05;30.58;101784.50;21085310;28;20048;-72
2023/03/16 07:10:17;;;;;;;0.75;0.65;;;;;;;20.03;30.44;101775.59;21083815;28;20045;-72
2023/03/16 07:20:18;;;;;;;0.40;0.40;;;;;;;19.93;30.33;101765.19;21084208;28;20043;-73
2023/03/16 07:30:20;;;;;;;0.45;0.40;;;;;;;19.98;29.62;101772.75;21083217;28;20047;-73
2023/03/16 07:40:22;;;;;;;0.85;0.50;;;;;;;19.92;29.67;101784.84;21083615;28;20093;-73
2023/03/16 07:50:23;;;;;;;1.70;0.60;;;;;;;19.92;29.53;101752.34;21079622;28;20044;-72
2023/03/16 08:00:24;;;;;;;0.65;0.57;;;;;;;20.02;29.24;101755.31;21079720;28;20052;-72
2023/03/16 08:10:26;;;;;;;1.15;0.60;;;;;;;20.10;29.52;101769.84;21079440;28;20063;-72
2023/03/16 08:20:29;;;;;;;0.50;0.50;;;;;;;20.14;29.58;101760.75;21076116;28;20043;-72
2023/03/16 08:30:30;;;;;;;0.70;0.70;;;;;;;20.15;29.13;101748.53;21076874;28;20036;-72
2023/03/16 08:40:33;;;;;;;1.40;0.50;;;;;;;20.18;29.48;101761.91;21078406;28;20105;-72
2023/03/16 08:50:43;;;;;;;0.98;0.60;;;;;;;20.08;29.64;101745.09;21077131;28;20097;-72
2023/03/16 09:00:45;;;;;;;0.80;0.50;;;;;;;20.26;28.88;101780.94;21073243;28;20441;-72
2023/03/16 09:10:46;;;;;;;0.50;0.50;;;;;;;20.24;28.67;101788.69;21075265;28;20070;-72
2023/03/16 09:20:48;;;;;;;0.93;0.60;;;;;;;20.17;28.82;101789.97;21073652;28;20105;-72
2023/03/16 09:30:50;;;;;;;1.15;0.50;;;;;;;20.04;29.06;101799.50;21074206;28;20040;-73
2023/03/16 09:41:01;;;;;;;0.88;0.70;;;;;;;20.12;29.00;101840.75;21071663;28;20792;-72
2023/03/16 09:51:06;;;;;;;0.57;0.57;;;;;;;20.07;29.09;101843.47;21073143;28;20391;-72
2023/03/16 10:01:39;;;;;;;0.75;0.60;;;;;;;20.03;29.16;101854.22;21072368;28;20094;-72
2023/03/16 10:11:45;;;;;;;0.50;0.47;;;;;;;20.04;29.06;101863.41;21064569;28;20044;-73
2023/03/16 10:21:49;;;;;;;0.47;0.47;;;;;;;19.83;29.02;101836.38;21070104;28;20336;-72
2023/03/16 10:31:51;;;;;;;0.52;0.52;;;;;;;19.77;28.72;101833.50;21090239;28;20043;-72
2023/03/16 10:41:56;;;;;;;0.80;0.68;;;;;;;19.91;28.85;101849.84;21088972;28;20051;-72
2023/03/16 10:51:59;;;;;;;0.70;0.70;;;;;;;19.98;28.90;101878.31;21073649;28;20044;-74
2023/03/16 11:02:10;;;;;;;0.85;0.80;;;;;;;19.98;29.12;101889.44;21081469;28;20039;-73
2023/03/16 11:12:26;;;;;;;1.20;0.50;;;;;;;19.98;29.16;101906.09;21080720;28;20048;-74
2023/03/16 11:22:29;;;;;;;0.90;0.70;;;;;;;19.87;29.22;101895.88;21083233;28;20566;-74
2023/03/16 11:32:37;;;;;;;0.68;0.60;;;;;;;19.97;28.93;101909.94;21084826;28;20032;-74
2023/03/16 11:42:54;;;;;;;1.45;1.10;;;;;;;19.96;29.28;101908.25;21084369;28;20441;-73
2023/03/16 11:53:23;;;;;;;0.77;0.70;;;;;;;19.94;29.22;101904.91;21084075;28;20093;-73
2023/03/16 12:03:41;;;;;;;1.20;0.80;;;;;;;19.94;29.56;101910.47;21070430;28;20105;-72
2023/03/16 12:13:52;;;;;;;0.68;0.57;;;;;;;20.02;29.13;101929.47;21068048;28;20040;-73
2023/03/16 12:24:00;;;;;;;1.13;0.90;;;;;;;20.00;29.25;101918.63;21074117;28;20435;-72
2023/03/16 12:34:23;;;;;;;1.43;0.90;;;;;;;19.87;31.58;101907.84;21079939;28;20495;-72
2023/03/16 12:44:35;;;;;;;3.47;1.00;;;;;;;19.96;31.64;101913.81;21078297;28;20040;-72
2023/03/16 12:54:57;;;;;;;7.90;4.10;;;;;;;19.76;31.64;101881.81;21077722;28;20376;-72
2023/03/16 13:05:09;;;;;;;13.88;6.82;;;;;;;20.11;31.51;101933.53;21066468;28;20098;-73
2023/03/16 13:15:16;;;;;;;16.48;7.65;;;;;;;20.15;31.22;101911.66;21073372;28;20380;-72
2023/03/16 13:25:31;;;;;;;20.40;8.45;;;;;;;20.18;31.25;101895.31;21064495;28;20044;-71
2023/03/16 13:35:32;;;;;;;16.50;7.57;;;;;;;20.25;30.99;101896.00;21076396;28;20040;-71
2023/03/16 13:45:37;;;;;;;14.02;8.82;;;;;;;20.28;30.98;101895.47;21075561;28;20040;-71
2023/03/16 13:55:40;;;;;;;16.92;8.98;;;;;;;20.28;30.77;101884.34;21077060;28;20052;-71
2023/03/16 14:05:41;;;;;;;15.48;8.65;;;;;;;20.27;30.35;101865.16;21092547;28;20040;-71
2023/03/16 14:15:44;;;;;;;15.60;8.80;;;;;;;20.33;29.71;101879.97;21091937;28;20044;-72
2023/03/16 14:25:48;;;;;;;13.75;7.93;;;;;;;20.29;29.65;101876.84;21090838;28;20093;-70
2023/03/16 14:35:57;;;;;;;14.98;7.85;;;;;;;20.29;29.59;101891.59;21089567;28;20483;-72
2023/03/16 14:46:02;;;;;;;15.25;7.47;;;;;;;20.37;29.18;101897.81;21088632;28;20040;-72
2023/03/16 14:56:12;;;;;;;11.02;6.00;;;;;;;20.31;29.39;101889.41;21088317;28;20032;-72
2023/03/16 15:06:14;;;;;;;11.68;6.40;;;;;;;20.35;29.04;101897.25;21087622;28;20101;-72
2023/03/16 15:16:21;;;;;;;12.52;6.95;;;;;;;20.34;29.54;101898.31;21085240;28;20032;-76
2023/03/16 15:26:26;;;;;;;9.48;6.00;;;;;;;20.36;29.70;101879.47;21085807;28;20057;-75
2023/03/16 15:36:27;;;;;;;11.82;5.97;;;;;;;20.36;29.71;101874.75;21084128;28;20028;-79
2023/03/16 15:46:28;;;;;;;33.05;6.13;;;;;;;20.37;30.27;101870.88;21082413;28;20043;-74
2023/03/16 15:56:40;;;;;;;107.25;11.80;;;;;;;20.09;30.75;101813.47;21083372;28;20037;-72
2023/03/16 16:06:42;;;;;;;76.95;10.85;;;;;;;20.47;31.10;101848.81;21054500;28;20090;-76
2023/03/16 16:16:44;;;;;;;73.82;10.82;;;;;;;20.53;31.27;101814.44;20997892;28;20110;-69
2023/03/16 16:26:51;;;;;;;71.97;9.63;;;;;;;20.61;31.54;101792.81;20997256;28;20052;-68
2023/03/16 16:36:53;;;;;;;40.00;6.68;;;;;;;20.63;31.08;101769.22;20996276;28;20472;-68
2023/03/16 16:46:56;;;;;;;41.65;5.82;;;;;;;20.68;31.15;101760.09;20995506;28;20445;-68
2023/03/16 16:56:59;;;;;;;36.17;5.75;;;;;;;20.71;31.13;101740.97;20995762;28;20040;-68
2023/03/16 17:07:02;;;;;;;24.02;5.90;;;;;;;20.67;31.03;101731.47;20994537;28;20047;-68
2023/03/16 17:17:11;;;;;;;49.78;7.65;;;;;;;20.79;31.96;101706.25;20994844;28;20037;-66
2023/03/16 17:27:13;;;;;;;;;;;;;;;20.87;32.08;101686.31;20992647;28;20037;-69
2023/03/16 17:37:20;;;;;;;93.68;9.25;;;;;;;20.94;32.21;101669.44;21007244;28;19912;-67
2023/03/16 17:47:27;;;;;;;113.88;12.15;;;;;;;20.94;33.09;101653.59;21074849;28;20048;-67
2023/03/16 17:57:31;;;;;;;125.60;10.10;;;;;;;21.01;34.62;101628.31;21073839;28;20063;-66
2023/03/16 18:07:32;;;;;;;71.53;7.95;;;;;;;21.06;34.06;101600.53;21073304;28;20066;-67
2023/03/16 18:17:34;;;;;;;69.63;7.10;;;;;;;21.13;33.60;101591.97;21073649;28;20391;-67
2023/03/16 18:27:36;;;;;;;86.70;7.70;;;;;;;21.16;33.64;101561.63;21072628;28;20044;-67
2023/03/16 18:37:43;;;;;;;61.85;8.27;;;;;;;21.19;33.83;101547.19;21072722;28;20165;-65
2023/03/16 18:47:54;;;;;;;60.60;6.53;;;;;;;21.23;33.76;101520.50;21080828;28;20146;-68
2023/03/16 18:57:56;;;;;;;47.35;6.60;;;;;;;21.30;33.89;101500.75;21086885;28;20032;-68
2023/03/16 19:07:57;;;;;;;37.88;6.28;;;;;;;21.23;34.00;101475.13;21081716;28;20044;-68
2023/03/16 19:18:01;;;;;;;42.65;5.68;;;;;;;21.42;34.40;101456.03;21081278;28;20503;-64
2023/03/16 19:28:05;;;;;;;45.40;6.57;;;;;;;21.28;34.48;101431.44;21065617;28;20044;-68
2023/03/16 19:38:07;;;;;;;138.75;10.63;;;;;;;21.42;36.74;101442.94;21080508;28;20548;-66
2023/03/16 19:48:32;;;;;;;42.58;7.18;;;;;;;21.41;34.74;101423.75;21081320;28;20571;-67
2023/03/16 19:58:41;;;;;;;46.45;7.32;;;;;;;21.38;35.48;101396.44;21079664;28;20048;-71
2023/03/16 20:08:44;;;;;;;70.35;7.68;;;;;;;21.39;35.93;101392.53;21080731;28;20048;-73
2023/03/16 20:18:48;;;;;;;107.78;10.10;;;;;;;21.46;37.86;101384.78;21057888;28;20058;-73
2023/03/16 20:28:50;;;;;;;119.35;10.73;;;;;;;21.57;38.32;101372.53;21072259;28;20036;-70
2023/03/16 20:38:52;;;;;;;138.20;10.70;;;;;;;21.67;37.74;101361.44;21068826;28;20024;-71
2023/03/16 20:48:54;;;;;;;69.30;7.78;;;;;;;21.75;37.93;101344.16;21066848;28;20112;-73
2023/03/16 20:58:55;;;;;;;52.17;7.35;;;;;;;21.58;39.53;101299.06;21039611;28;20093;-71
2023/03/16 21:09:01;;;;;;;86.70;9.90;;;;;;;21.80;38.32;101344.16;21060264;28;20043;-72
2023/03/16 21:19:02;;;;;;;73.20;7.63;;;;;;;21.78;38.40;101315.75;21068474;28;20047;-70
2023/03/16 21:29:17;;;;;;;70.68;9.13;;;;;;;21.87;40.47;101312.44;21070273;28;20032;-73
2023/03/16 21:39:21;;;;;;;95.60;9.98;;;;;;;21.87;41.11;101315.22;21067746;28;20487;-74
2023/03/16 21:49:22;;;;;;;105.30;10.20;;;;;;;21.98;44.44;101305.72;21049348;28;20048;-72
2023/03/16 21:59:24;;;;;;;102.90;12.27;;;;;;;21.76;45.29;101247.50;21048396;28;20036;-71
2023/03/16 22:09:28;;;;;;;96.72;12.45;;;;;;;22.17;47.82;101292.09;21069457;28;20491;-72
2023/03/16 22:19:33;;;;;;;72.15;10.48;;;;;;;22.15;46.66;101292.38;21050619;28;20112;-73
2023/03/16 22:29:35;;;;;;;70.97;9.80;;;;;;;22.17;45.20;101315.22;21074336;28;20140;-71
2023/03/16 22:39:38;;;;;;;64.90;9.13;;;;;;;22.07;44.28;101321.59;21079227;28;20048;-71
2023/03/16 22:49:44;;;;;;;67.75;8.15;;;;;;;22.03;42.85;101341.94;21088644;28;20433;-71
2023/03/16 22:59:50;;;;;;;48.53;7.68;;;;;;;21.91;42.15;101333.06;21087982;28;20039;-70
2023/03/16 23:09:56;;;;;;;41.75;6.88;;;;;;;21.89;41.10;101346.41;21085120;28;20040;-71
2023/03/16 23:19:58;;;;;;;39.10;5.63;;;;;;;21.69;39.77;101334.13;21086297;28;20040;-71
2023/03/16 23:30:00;;;;;;;28.65;6.18;;;;;;;21.72;39.07;101353.09;21085709;28;20505;-70
2023/03/16 23:40:02;;;;;;;28.65;5.10;;;;;;;21.66;38.42;101339.41;21085097;28;20062;-71
2023/03/16 23:50:05;;;;;;;26.50;5.30;;;;;;;21.63;37.81;101335.25;21084515;28;20402;-72
